Time;durP1;ratioP1;P1;durP2;ratioP2;P2;SDS_P1;SDS_P2;PMS_P1;PMS_P2;Temp;Humidity;BMP_temperature;BMP_pressure;BME280_temperature;BME280_humidity;BME280_pressure;Samples;Min_cycle;Max_cycle;Signal;HPM_P1;HPM_P2
2021/09/06 00:00:29;;;;;;;12.37;7.40;;;16.50;82.20;;;;;;5070706;28;20465;-81
2021/09/06 00:02:56;;;;;;;7.47;6.57;;;16.50;82.20;;;;;;5070715;28;20543;-80
2021/09/06 00:05:23;;;;;;;9.87;7.57;;;16.50;82.20;;;;;;5071320;28;20499;-81
2021/09/06 00:07:52;;;;;;;7.90;7.10;;;16.50;82.20;;;;;;5071345;28;20483;-80
2021/09/06 00:10:31;;;;;;;7.57;6.73;;;16.50;82.20;;;;;;5071112;28;20453;-82
2021/09/06 00:12:58;;;;;;;7.83;7.03;;;16.50;82.20;;;;;;5071426;28;20489;-82
2021/09/06 00:15:25;;;;;;;8.50;7.60;;;16.50;82.20;;;;;;5071824;28;20433;-81
2021/09/06 00:17:52;;;;;;;7.87;6.30;;;16.50;80.40;;;;;;5071351;28;20432;-81
2021/09/06 00:20:19;;;;;;;6.97;6.33;;;16.60;79.20;;;;;;5061500;28;20464;-81
2021/09/06 00:22:46;;;;;;;9.20;7.45;;;16.50;79.00;;;;;;5058536;28;20479;-82
2021/09/06 00:25:14;;;;;;;11.30;7.33;;;16.60;78.00;;;;;;5057903;28;20213;-81
2021/09/06 00:27:42;;;;;;;7.13;6.43;;;16.60;77.40;;;;;;5056153;28;21011;-81
2021/09/06 00:30:10;;;;;;;9.10;7.23;;;16.60;77.30;;;;;;5059040;28;20540;-80
2021/09/06 00:32:37;;;;;;;7.57;6.67;;;16.60;77.10;;;;;;5077344;28;20487;-81
2021/09/06 00:35:04;;;;;;;7.97;7.13;;;16.50;77.40;;;;;;5067011;28;20517;-82
2021/09/06 00:37:31;;;;;;;7.70;6.80;;;16.50;77.80;;;;;;5077375;28;20460;-82
2021/09/06 00:39:58;;;;;;;7.40;6.70;;;16.50;78.30;;;;;;5069555;28;20438;-80
2021/09/06 00:42:26;;;;;;;7.97;6.63;;;16.40;78.70;;;;;;5065789;28;20480;-80
2021/09/06 00:44:53;;;;;;;11.50;7.53;;;16.30;79.20;;;;;;5071999;28;20439;-80
2021/09/06 00:47:20;;;;;;;11.10;6.90;;;16.30;80.30;;;;;;5062674;28;20438;-79
2021/09/06 00:49:47;;;;;;;9.50;7.33;;;16.20;81.50;;;;;;5079893;28;20479;-79
2021/09/06 00:52:14;;;;;;;8.30;7.37;;;16.30;82.00;;;;;;5080271;28;20459;-80
2021/09/06 00:54:45;;;;;;;8.73;7.20;;;16.20;83.00;;;;;;5069281;28;20454;-81
2021/09/06 00:57:12;;;;;;;9.47;7.30;;;16.10;84.00;;;;;;5063056;28;20453;-80
2021/09/06 00:59:40;;;;;;;7.95;7.10;;;16.00;85.60;;;;;;5069452;28;20484;-82
2021/09/06 01:02:07;;;;;;;9.07;7.03;;;16.00;87.10;;;;;;5073122;28;20301;-81
2021/09/06 01:04:34;;;;;;;10.00;6.90;;;15.90;87.70;;;;;;5071659;28;20444;-80
2021/09/06 01:07:01;;;;;;;7.93;7.13;;;15.80;88.60;;;;;;5066194;28;20301;-82
2021/09/06 01:09:28;;;;;;;8.20;7.40;;;15.80;89.90;;;;;;5063957;28;20480;-82
2021/09/06 01:11:55;;;;;;;8.63;7.80;;;15.80;90.00;;;;;;5062305;28;20308;-82
2021/09/06 01:14:22;;;;;;;10.13;7.03;;;15.70;89.90;;;;;;5062646;28;20586;-82
2021/09/06 01:16:51;;;;;;;8.48;7.22;;;15.70;90.30;;;;;;5067813;28;20427;-81
2021/09/06 01:19:17;;;;;;;8.40;7.32;;;15.60;90.90;;;;;;5067941;28;20238;-81
2021/09/06 01:21:44;;;;;;;8.23;7.10;;;15.60;91.50;;;;;;5068889;28;20234;-81
2021/09/06 01:24:11;;;;;;;11.95;7.95;;;15.50;91.50;;;;;;5068924;28;20457;-81
2021/09/06 01:26:40;;;;;;;8.70;7.78;;;15.60;91.60;;;;;;5068532;28;20213;-81
2021/09/06 01:29:08;;;;;;;9.75;7.30;;;15.60;91.50;;;;;;5065148;28;20241;-82
2021/09/06 01:31:35;;;;;;;10.15;7.72;;;15.50;91.60;;;;;;5064198;28;20230;-82
2021/09/06 01:34:02;;;;;;;8.68;6.82;;;15.50;91.70;;;;;;5064056;28;20252;-81
2021/09/06 01:36:29;;;;;;;7.80;7.10;;;15.50;91.70;;;;;;5067834;28;20217;-80
2021/09/06 01:38:56;;;;;;;8.52;7.65;;;15.50;91.50;;;;;;5068476;28;20215;-82
2021/09/06 01:41:23;;;;;;;8.18;6.95;;;15.50;90.90;;;;;;5065386;28;20256;-80
2021/09/06 01:43:51;;;;;;;9.20;7.80;;;15.50;90.20;;;;;;5064883;28;20241;-80
2021/09/06 01:46:18;;;;;;;8.13;7.32;;;15.50;89.80;;;;;;5063279;28;20214;-81
2021/09/06 01:48:45;;;;;;;10.10;7.10;;;15.50;89.80;;;;;;5061923;28;20273;-82
2021/09/06 01:51:12;;;;;;;8.27;7.03;;;15.50;89.70;;;;;;5061607;28;20288;-81
2021/09/06 01:53:39;;;;;;;11.40;7.83;;;15.50;89.60;;;;;;5060597;28;20298;-80
2021/09/06 01:56:06;;;;;;;9.37;6.97;;;15.50;88.70;;;;;;5060922;28;20539;-80
2021/09/06 01:58:32;;;;;;;7.85;7.00;;;15.60;87.50;;;;;;5061736;28;20477;-80
2021/09/06 02:01:01;;;;;;;8.17;7.23;;;15.60;87.10;;;;;;5061455;28;20733;-81
2021/09/06 02:03:28;;;;;;;8.23;7.43;;;15.50;88.10;;;;;;5062316;28;20524;-82
2021/09/06 02:05:55;;;;;;;10.75;6.93;;;15.40;88.80;;;;;;5068722;28;20207;-80
2021/09/06 02:08:21;;;;;;;10.85;6.80;;;15.40;88.80;;;;;;5072641;28;20203;-81
2021/09/06 02:10:48;;;;;;;9.60;8.13;;;15.40;89.50;;;;;;5070619;28;20217;-82
2021/09/06 02:13:15;;;;;;;15.33;7.70;;;15.40;89.60;;;;;;5072911;28;20759;-82
2021/09/06 02:15:42;;;;;;;8.90;7.63;;;15.30;89.60;;;;;;5077985;28;20439;-83
2021/09/06 02:18:10;;;;;;;7.68;6.97;;;15.30;89.60;;;;;;5075334;28;20438;-82
2021/09/06 02:20:37;;;;;;;8.53;7.73;;;15.30;89.60;;;;;;5074538;28;20234;-80
2021/09/06 02:23:04;;;;;;;8.07;7.37;;;15.20;90.30;;;;;;5078451;28;20476;-83
2021/09/06 02:25:31;;;;;;;8.77;7.97;;;15.20;90.80;;;;;;5078229;28;20424;-82
2021/09/06 02:27:58;;;;;;;7.87;7.10;;;15.10;91.50;;;;;;5079044;28;20455;-80
2021/09/06 02:30:25;;;;;;;8.38;7.57;;;15.00;91.80;;;;;;5078215;28;20855;-81
2021/09/06 02:32:52;;;;;;;10.60;6.87;;;14.90;92.40;;;;;;5073533;28;20226;-83
2021/09/06 02:35:21;;;;;;;8.93;7.80;;;14.90;92.40;;;;;;5065619;28;20447;-81
2021/09/06 02:37:47;;;;;;;8.88;7.30;;;15.00;92.10;;;;;;5064783;28;20465;-80
2021/09/06 02:40:17;;;;;;;10.93;7.43;;;14.90;92.20;;;;;;5063687;28;20679;-80
2021/09/06 02:42:45;;;;;;;8.13;7.30;;;14.90;92.30;;;;;;5064455;28;20264;-83
2021/09/06 02:45:13;;;;;;;8.25;7.05;;;14.90;92.10;;;;;;5065008;28;20210;-81
2021/09/06 02:47:43;;;;;;;8.73;7.82;;;14.90;91.70;;;;;;5063737;28;20667;-80
2021/09/06 02:50:11;;;;;;;8.57;7.78;;;15.00;91.10;;;;;;5065643;28;20570;-81
2021/09/06 02:52:39;;;;;;;8.05;7.25;;;15.00;90.30;;;;;;5077166;28;20226;-83
2021/09/06 02:55:07;;;;;;;8.43;7.47;;;15.00;90.00;;;;;;5069382;28;20230;-80
2021/09/06 02:57:34;;;;;;;10.63;7.50;;;15.00;89.30;;;;;;5078755;28;20206;-80
2021/09/06 03:00:01;;;;;;;8.38;7.57;;;15.10;89.30;;;;;;5072800;28;20453;-80
2021/09/06 03:02:29;;;;;;;8.83;6.67;;;15.10;89.00;;;;;;5059899;28;20644;-80
2021/09/06 03:04:57;;;;;;;10.15;7.25;;;15.10;88.00;;;;;;5059566;28;20547;-80
2021/09/06 03:07:24;;;;;;;8.35;6.72;;;15.10;87.30;;;;;;5059826;28;20618;-80
2021/09/06 03:09:53;;;;;;;7.55;6.75;;;15.10;87.00;;;;;;5060048;28;20206;-81
2021/09/06 03:12:19;;;;;;;7.60;6.82;;;15.10;87.30;;;;;;5059204;28;20253;-79
2021/09/06 03:14:46;;;;;;;10.32;8.20;;;15.10;86.70;;;;;;5059461;28;20264;-80
2021/09/06 03:17:13;;;;;;;8.73;7.82;;;15.10;86.10;;;;;;5062126;28;20609;-82
2021/09/06 03:19:40;;;;;;;7.68;6.90;;;15.10;85.70;;;;;;5070596;28;20245;-80
2021/09/06 03:22:07;;;;;;;11.30;8.05;;;15.00;85.20;;;;;;5057784;28;20630;-80
2021/09/06 03:24:34;;;;;;;10.20;6.70;;;15.10;85.10;;;;;;5057668;28;20551;-81
2021/09/06 03:27:03;;;;;;;7.65;6.50;;;15.10;85.10;;;;;;5058832;28;20206;-81
2021/09/06 03:29:29;;;;;;;8.25;7.35;;;15.10;85.10;;;;;;5060457;28;20253;-81
2021/09/06 03:31:57;;;;;;;8.02;7.22;;;15.00;85.60;;;;;;5060353;28;20272;-82
2021/09/06 03:34:24;;;;;;;9.82;7.93;;;15.00;86.20;;;;;;5060088;28;20213;-79
2021/09/06 03:36:51;;;;;;;8.50;6.95;;;15.00;85.60;;;;;;5057953;28;20236;-81
2021/09/06 03:39:19;;;;;;;8.68;7.78;;;15.00;85.70;;;;;;5057164;28;20293;-80
2021/09/06 03:41:46;;;;;;;9.48;7.40;;;15.00;85.60;;;;;;5057324;28;20562;-80
2021/09/06 03:44:14;;;;;;;9.50;7.80;;;15.00;85.60;;;;;;5065948;28;20201;-82
2021/09/06 03:46:41;;;;;;;8.95;8.05;;;15.00;86.50;;;;;;5071007;28;20233;-82
2021/09/06 03:49:08;;;;;;;8.65;7.85;;;15.00;86.30;;;;;;5060484;28;20233;-81
2021/09/06 03:51:35;;;;;;;10.68;7.28;;;15.00;86.20;;;;;;5070897;28;20231;-83
2021/09/06 03:54:02;;;;;;;9.18;8.18;;;15.00;86.00;;;;;;5067517;28;20230;-80
2021/09/06 03:56:29;;;;;;;9.35;7.55;;;14.90;85.90;;;;;;5057942;28;20213;-81
2021/09/06 03:58:56;;;;;;;8.45;7.47;;;14.90;85.60;;;;;;5056927;28;20217;-80
2021/09/06 04:01:25;;;;;;;8.60;7.65;;;15.00;85.30;;;;;;5056528;28;20248;-83
2021/09/06 04:03:52;;;;;;;11.25;7.70;;;14.90;85.80;;;;;;5057481;28;20248;-81
2021/09/06 04:06:19;;;;;;;8.20;6.57;;;14.90;86.10;;;;;;5056960;28;20217;-83
2021/09/06 04:08:46;;;;;;;8.18;7.38;;;14.90;86.00;;;;;;5057354;28;20243;-81
2021/09/06 04:11:13;;;;;;;12.38;7.75;;;14.80;86.70;;;;;;5057493;28;20214;-82
2021/09/06 04:13:40;;;;;;;9.63;7.63;;;14.80;87.10;;;;;;5057313;28;20267;-82
2021/09/06 04:16:08;;;;;;;8.93;8.02;;;14.80;87.40;;;;;;5057783;28;20253;-82
2021/09/06 04:18:36;;;;;;;9.70;7.60;;;14.80;87.80;;;;;;5057483;28;20605;-82
2021/09/06 04:21:04;;;;;;;8.85;7.85;;;14.70;88.00;;;;;;5059473;28;20244;-81
2021/09/06 04:23:32;;;;;;;9.45;7.43;;;14.70;88.20;;;;;;5060021;28;20279;-83
2021/09/06 04:26:00;;;;;;;9.40;7.93;;;14.70;87.30;;;;;;5058882;28;20675;-82
2021/09/06 04:28:27;;;;;;;8.57;7.63;;;14.70;87.30;;;;;;5057883;28;20267;-81
2021/09/06 04:30:54;;;;;;;8.73;7.93;;;14.70;87.20;;;;;;5056412;28;20678;-81
2021/09/06 04:33:21;;;;;;;11.57;8.15;;;14.70;88.40;;;;;;5057033;28;20253;-80
2021/09/06 04:35:49;;;;;;;8.38;7.47;;;14.60;88.90;;;;;;5057310;28;20229;-83
2021/09/06 04:38:16;;;;;;;10.45;7.95;;;14.60;88.90;;;;;;5058078;28;20292;-83
2021/09/06 04:40:43;;;;;;;9.23;7.40;;;14.60;90.00;;;;;;5057160;28;20209;-82
2021/09/06 04:43:10;;;;;;;9.32;8.43;;;14.50;90.30;;;;;;5057510;28;20253;-81
2021/09/06 04:45:37;;;;;;;11.85;8.98;;;14.50;90.60;;;;;;5057416;28;20241;-82
2021/09/06 04:48:05;;;;;;;10.82;8.45;;;14.50;90.90;;;;;;5057532;28;20209;-81
2021/09/06 04:50:32;;;;;;;11.10;7.50;;;14.40;91.20;;;;;;5057618;28;20283;-82
2021/09/06 04:53:00;;;;;;;8.85;7.68;;;14.30;91.60;;;;;;5057778;28;20269;-83
2021/09/06 04:55:27;;;;;;;10.38;8.65;;;14.30;91.90;;;;;;5058302;28;20277;-82
2021/09/06 04:57:54;;;;;;;8.43;7.55;;;14.30;92.30;;;;;;5058849;28;20245;-82
2021/09/06 05:00:22;;;;;;;10.57;7.60;;;14.30;92.50;;;;;;5060583;28;20277;-81
2021/09/06 05:02:49;;;;;;;8.75;7.90;;;14.30;92.60;;;;;;5064777;28;20234;-82
2021/09/06 05:05:16;;;;;;;10.18;8.13;;;14.30;92.50;;;;;;5065511;28;20224;-83
2021/09/06 05:07:43;;;;;;;9.85;8.40;;;14.30;92.60;;;;;;5073555;28;20210;-83
2021/09/06 05:10:12;;;;;;;9.02;8.13;;;14.30;92.10;;;;;;5071032;28;20274;-84
2021/09/06 05:12:39;;;;;;;11.07;9.18;;;14.30;91.80;;;;;;5073516;28;20243;-84
2021/09/06 05:15:07;;;;;;;9.48;7.47;;;14.30;91.20;;;;;;5073463;28;20209;-83
2021/09/06 05:17:34;;;;;;;9.18;7.88;;;14.40;91.50;;;;;;5074854;28;20186;-84
2021/09/06 05:20:01;;;;;;;8.73;7.63;;;14.50;91.50;;;;;;5073649;28;20194;-84
2021/09/06 05:22:28;;;;;;;9.32;8.10;;;14.80;89.50;;;;;;5057254;28;20733;-82
2021/09/06 05:24:55;;;;;;;8.27;7.45;;;15.00;86.30;;;;;;5062057;28;20225;-84
2021/09/06 05:27:24;;;;;;;11.02;8.00;;;15.20;84.10;;;;;;5071609;28;20213;-82
2021/09/06 05:29:51;;;;;;;9.68;7.78;;;15.40;81.20;;;;;;5069674;28;20222;-83
2021/09/06 05:32:18;;;;;;;9.67;7.90;;;15.60;80.60;;;;;;5068868;28;20218;-83
2021/09/06 05:34:44;;;;;;;10.70;6.80;;;15.80;78.60;;;;;;5079017;28;20403;-83
2021/09/06 05:37:12;;;;;;;8.70;7.20;;;16.00;74.70;;;;;;5080186;28;20434;-82
2021/09/06 05:39:38;;;;;;;10.37;7.77;;;16.10;74.30;;;;;;5063243;28;20457;-82
2021/09/06 05:42:05;;;;;;;10.30;7.73;;;16.10;74.00;;;;;;5060363;28;20974;-82
2021/09/06 05:44:34;;;;;;;8.67;7.77;;;16.40;73.50;;;;;;5060455;28;20836;-82
2021/09/06 05:47:01;;;;;;;8.27;7.47;;;16.70;70.90;;;;;;5060852;28;20485;-82
2021/09/06 05:49:28;;;;;;;14.30;7.27;;;16.70;70.20;;;;;;5060338;28;20423;-84
2021/09/06 05:51:55;;;;;;;9.13;7.93;;;16.70;70.90;;;;;;5060307;28;20484;-81
2021/09/06 05:54:22;;;;;;;10.70;7.83;;;16.70;70.60;;;;;;5059404;28;20547;-82
2021/09/06 05:56:49;;;;;;;8.03;7.23;;;16.90;70.40;;;;;;5060580;28;20546;-81
2021/09/06 05:59:16;;;;;;;8.87;7.73;;;16.80;70.20;;;;;;5059743;28;20531;-81
2021/09/06 06:01:44;;;;;;;9.53;8.63;;;17.10;68.80;;;;;;5060471;28;20523;-82
2021/09/06 06:04:11;;;;;;;11.47;7.73;;;17.00;68.80;;;;;;5060703;28;20430;-82
2021/09/06 06:06:38;;;;;;;10.40;7.97;;;16.80;69.30;;;;;;5060419;28;20517;-82
2021/09/06 06:09:05;;;;;;;9.63;8.47;;;16.50;71.60;;;;;;5060591;28;20441;-82
2021/09/06 06:11:32;;;;;;;8.00;7.20;;;16.60;72.20;;;;;;5060346;28;20483;-82
2021/09/06 06:13:59;;;;;;;9.00;8.13;;;16.40;72.70;;;;;;5060320;28;20512;-82
2021/09/06 06:16:26;;;;;;;14.00;8.43;;;16.20;74.40;;;;;;5061102;28;20515;-82
2021/09/06 06:18:54;;;;;;;11.70;9.07;;;16.10;76.20;;;;;;5062528;28;20497;-84
2021/09/06 06:21:22;;;;;;;10.57;8.40;;;15.80;79.50;;;;;;5061523;28;20904;-83
2021/09/06 06:23:48;;;;;;;9.48;8.30;;;15.80;81.50;;;;;;5061764;28;20506;-81
2021/09/06 06:26:16;;;;;;;13.60;9.23;;;15.90;81.20;;;;;;5061785;28;20213;-81
2021/09/06 06:28:43;;;;;;;9.23;8.20;;;16.00;80.40;;;;;;5072879;28;20437;-82
2021/09/06 06:31:10;;;;;;;11.10;8.67;;;16.00;80.50;;;;;;5077424;28;20452;-82
2021/09/06 06:33:36;;;;;;;8.55;7.65;;;16.20;79.30;;;;;;5078628;28;20470;-82
2021/09/06 06:36:06;;;;;;;15.50;9.10;;;16.10;78.50;;;;;;5070325;28;20206;-82
2021/09/06 06:38:35;;;;;;;11.02;8.25;;;16.20;77.80;;;;;;5068765;28;20293;-82
2021/09/06 06:41:03;;;;;;;16.00;8.10;;;16.30;77.90;;;;;;5060188;28;20640;-83
2021/09/06 06:43:31;;;;;;;10.90;9.67;;;16.30;77.30;;;;;;5060252;28;20543;-82
2021/09/06 06:45:58;;;;;;;16.00;9.00;;;16.40;76.30;;;;;;5064317;28;20437;-82
2021/09/06 06:48:25;;;;;;;9.00;8.10;;;16.60;74.60;;;;;;5072254;28;20499;-82
2021/09/06 06:50:52;;;;;;;15.13;8.60;;;16.70;74.30;;;;;;5062195;28;20453;-82
2021/09/06 06:53:21;;;;;;;9.63;8.30;;;16.70;73.70;;;;;;5072445;28;20506;-82
2021/09/06 06:55:48;;;;;;;9.20;8.00;;;16.90;73.60;;;;;;5076514;28;20421;-84
2021/09/06 06:58:15;;;;;;;11.33;7.80;;;16.80;72.90;;;;;;5065583;28;20526;-81
2021/09/06 07:00:41;;;;;;;8.77;7.90;;;17.00;73.30;;;;;;5065805;28;20430;-83
2021/09/06 07:03:08;;;;;;;7.80;7.00;;;17.10;71.60;;;;;;5068297;28;20477;-82
2021/09/06 07:05:35;;;;;;;11.40;7.97;;;17.20;68.90;;;;;;5058836;28;20489;-82
2021/09/06 07:08:02;;;;;;;11.60;6.93;;;17.30;68.90;;;;;;5058516;28;21018;-82
2021/09/06 07:10:30;;;;;;;10.67;7.07;;;17.50;66.60;;;;;;5058573;28;20542;-81
2021/09/06 07:12:57;;;;;;;7.73;6.50;;;17.70;65.70;;;;;;5058813;28;20577;-81
2021/09/06 07:15:24;;;;;;;9.77;5.87;;;17.90;64.40;;;;;;5059504;28;20454;-82
2021/09/06 07:17:51;;;;;;;7.37;6.67;;;18.00;65.30;;;;;;5059756;28;20459;-81
2021/09/06 07:20:18;;;;;;;7.70;6.90;;;18.10;62.40;;;;;;5059534;28;20462;-80
2021/09/06 07:22:45;;;;;;;7.13;6.43;;;18.10;62.40;;;;;;5060570;28;20491;-81
2021/09/06 07:25:12;;;;;;;7.97;6.93;;;18.00;61.00;;;;;;5061021;28;20467;-83
2021/09/06 07:27:40;;;;;;;9.63;7.10;;;18.10;61.90;;;;;;5060017;28;20456;-83
2021/09/06 07:30:09;;;;;;;10.70;6.63;;;18.20;62.40;;;;;;5059930;28;20867;-80
2021/09/06 07:32:36;;;;;;;7.83;6.77;;;18.30;60.30;;;;;;5060114;28;20523;-81
2021/09/06 07:35:03;;;;;;;9.30;6.90;;;18.50;59.30;;;;;;5075956;28;20563;-81
2021/09/06 07:37:31;;;;;;;7.10;6.40;;;18.50;59.90;;;;;;5068888;28;20453;-77
2021/09/06 07:39:58;;;;;;;9.73;7.20;;;18.70;61.00;;;;;;5076356;28;20472;-80
2021/09/06 07:42:25;;;;;;;9.17;6.93;;;18.70;58.60;;;;;;5075545;28;20472;-81
2021/09/06 07:44:54;;;;;;;8.60;7.27;;;18.90;59.20;;;;;;5066185;28;20440;-80
2021/09/06 07:47:20;;;;;;;8.60;6.77;;;18.90;59.40;;;;;;5072193;28;20829;-82
2021/09/06 07:49:47;;;;;;;10.43;7.93;;;19.10;58.80;;;;;;5056689;28;20529;-83
2021/09/06 07:52:14;;;;;;;9.87;7.00;;;19.10;57.80;;;;;;5064172;28;20544;-83
2021/09/06 07:54:42;;;;;;;11.27;7.10;;;19.20;57.90;;;;;;5062386;28;20919;-80
2021/09/06 07:57:09;;;;;;;7.90;7.10;;;19.20;58.60;;;;;;5066830;28;20454;-80
2021/09/06 07:59:36;;;;;;;8.27;7.03;;;19.30;57.90;;;;;;5072532;28;20428;-80
2021/09/06 08:02:04;;;;;;;20.57;7.63;;;19.40;58.00;;;;;;5058471;28;20968;-80
2021/09/06 08:04:31;;;;;;;7.73;6.73;;;19.50;58.00;;;;;;5066714;28;20976;-81
2021/09/06 08:06:58;;;;;;;8.57;7.40;;;19.70;58.30;;;;;;5068217;28;20453;-81
2021/09/06 08:09:25;;;;;;;8.10;7.30;;;19.70;58.30;;;;;;5070146;28;20498;-81
2021/09/06 08:11:55;;;;;;;8.07;7.27;;;19.80;58.40;;;;;;5072394;28;20431;-79
2021/09/06 08:14:23;;;;;;;11.10;7.40;;;19.90;58.50;;;;;;5057526;28;20491;-79
2021/09/06 08:16:50;;;;;;;9.70;7.33;;;20.10;57.80;;;;;;5063004;28;20470;-81
2021/09/06 08:19:18;;;;;;;7.87;7.07;;;20.10;57.10;;;;;;5064567;28;20435;-79
2021/09/06 08:21:45;;;;;;;8.80;6.60;;;20.10;56.90;;;;;;5076128;28;20547;-80
2021/09/06 08:24:13;;;;;;;8.20;6.80;;;20.40;57.80;;;;;;5076065;28;20504;-79
2021/09/06 08:26:41;;;;;;;7.20;6.30;;;20.60;57.30;;;;;;5063322;28;20483;-78
2021/09/06 08:29:09;;;;;;;8.90;6.93;;;20.60;56.40;;;;;;5065021;28;20691;-81
2021/09/06 08:31:36;;;;;;;9.73;6.70;;;20.80;56.20;;;;;;5074826;28;20457;-80
2021/09/06 08:34:03;;;;;;;10.17;6.97;;;20.90;55.70;;;;;;5075275;28;20462;-80
2021/09/06 08:36:31;;;;;;;9.53;6.90;;;21.00;55.50;;;;;;5072490;28;20435;-80
2021/09/06 08:38:58;;;;;;;7.67;6.97;;;21.20;54.70;;;;;;5070317;28;20545;-79
2021/09/06 08:41:25;;;;;;;8.20;7.37;;;21.40;54.10;;;;;;5074290;28;20468;-77
2021/09/06 08:43:52;;;;;;;7.93;7.13;;;21.50;53.40;;;;;;5073877;28;20424;-77
2021/09/06 08:46:23;;;;;;;12.80;6.27;;;21.50;53.40;;;;;;5072689;28;20458;-78
2021/09/06 08:48:51;;;;;;;9.10;7.23;;;21.50;53.30;;;;;;5070870;28;20445;-78
2021/09/06 08:51:18;;;;;;;10.30;7.27;;;21.70;52.50;;;;;;5055948;28;20493;-78
2021/09/06 08:53:47;;;;;;;9.30;7.93;;;21.80;51.00;;;;;;5063237;28;20487;-78
2021/09/06 08:56:14;;;;;;;11.73;6.33;;;22.00;50.70;;;;;;5066419;28;20531;-79
2021/09/06 08:58:41;;;;;;;7.40;6.70;;;22.10;50.80;;;;;;5055377;28;20972;-79
2021/09/06 09:01:08;;;;;;;15.67;6.80;;;22.30;51.00;;;;;;5055219;28;20562;-78
2021/09/06 09:03:35;;;;;;;6.90;6.20;;;22.40;51.10;;;;;;5058393;28;20497;-80
2021/09/06 09:06:04;;;;;;;7.70;6.77;;;22.60;49.90;;;;;;5056444;28;20460;-77
2021/09/06 09:08:31;;;;;;;8.23;7.37;;;22.50;49.90;;;;;;5058339;28;20666;-79
2021/09/06 09:11:01;;;;;;;7.20;6.50;;;22.50;49.40;;;;;;5045838;28;20548;-79
2021/09/06 09:13:31;;;;;;;8.03;6.90;;;22.60;49.40;;;;;;5039978;28;20476;-80
2021/09/06 09:15:59;;;;;;;8.60;7.00;;;22.80;49.60;;;;;;5050613;28;20503;-80
2021/09/06 09:18:27;;;;;;;8.03;6.43;;;22.90;48.70;;;;;;5060777;28;21244;-81
2021/09/06 09:21:00;;;;;;;7.00;5.90;;;23.20;47.80;;;;;;5056566;28;20486;-79
2021/09/06 09:23:53;;;;;;;8.70;6.30;;;23.30;47.00;;;;;;5067470;28;20454;-77
2021/09/06 09:26:21;;;;;;;11.43;7.20;;;23.40;46.50;;;;;;5049178;28;20560;-79
2021/09/06 09:28:50;;;;;;;9.80;6.53;;;23.50;46.20;;;;;;5072127;28;20452;-77
2021/09/06 09:31:19;;;;;;;6.67;6.07;;;23.70;46.30;;;;;;5070383;28;20514;-77
2021/09/06 09:33:47;;;;;;;6.47;5.87;;;23.60;45.20;;;;;;5086365;22;20487;-72
2021/09/06 09:36:26;;;;;;;7.10;6.10;;;23.50;44.90;;;;;;5056718;28;20493;-72
2021/09/06 09:38:53;;;;;;;13.33;6.57;;;23.70;44.30;;;;;;5062254;28;20505;-73
2021/09/06 09:41:21;;;;;;;7.33;6.30;;;23.90;43.30;;;;;;5046915;28;20472;-72
2021/09/06 09:43:48;;;;;;;6.70;6.00;;;24.10;43.30;;;;;;5067176;28;20550;-73
2021/09/06 09:46:15;;;;;;;9.70;6.57;;;24.20;42.70;;;;;;5063857;28;20492;-73
2021/09/06 09:48:44;;;;;;;10.67;6.53;;;24.30;42.80;;;;;;5065698;28;20420;-73
2021/09/06 09:51:11;;;;;;;7.13;5.67;;;24.20;41.40;;;;;;5058103;28;20449;-72
2021/09/06 09:53:38;;;;;;;7.17;6.43;;;24.20;40.50;;;;;;5063319;28;20500;-72
2021/09/06 09:56:06;;;;;;;7.13;6.43;;;24.30;41.00;;;;;;5055395;28;20452;-73
2021/09/06 09:58:35;;;;;;;8.13;6.33;;;24.20;41.60;;;;;;5044952;28;20423;-72
2021/09/06 10:01:04;;;;;;;7.67;6.83;;;24.40;40.70;;;;;;5054350;28;20544;-73
2021/09/06 10:03:34;;;;;;;8.20;6.30;;;24.60;39.30;;;;;;5055732;28;21030;-71
2021/09/06 10:06:02;;;;;;;7.10;6.40;;;24.70;38.50;;;;;;5051497;28;20532;-74
2021/09/06 10:08:30;;;;;;;8.13;6.07;;;24.90;38.50;;;;;;5063611;28;20452;-73
2021/09/06 10:10:57;;;;;;;10.03;6.63;;;25.10;38.40;;;;;;5059065;28;20910;-71
2021/09/06 10:13:25;;;;;;;7.90;6.33;;;25.20;38.90;;;;;;5062984;28;20581;-72
2021/09/06 10:16:01;;;;;;;7.20;6.50;;;25.30;37.10;;;;;;5053511;28;20481;-72
2021/09/06 10:18:37;;;;;;;10.23;6.23;;;25.40;35.30;;;;;;5054382;28;20462;-71
2021/09/06 10:21:12;;;;;;;6.93;6.10;;;25.10;36.10;;;;;;5054200;28;20431;-72
2021/09/06 10:23:43;;;;;;;7.40;6.70;;;25.30;33.60;;;;;;5054545;28;20486;-71
2021/09/06 10:26:10;;;;;;;9.10;6.53;;;25.50;34.10;;;;;;5041387;28;20514;-71
2021/09/06 10:28:38;;;;;;;8.97;5.97;;;25.40;33.90;;;;;;5054790;28;20450;-71
2021/09/06 10:31:17;;;;;;;7.03;6.43;;;25.50;33.50;;;;;;5055379;28;21017;-71
2021/09/06 10:33:44;;;;;;;6.50;5.90;;;25.90;33.80;;;;;;5053945;28;20516;-72
2021/09/06 10:36:13;;;;;;;7.37;6.63;;;25.90;33.80;;;;;;5038378;28;20450;-72
2021/09/06 10:38:43;;;;;;;6.60;6.00;;;25.70;29.80;;;;;;5054268;28;20460;-74
2021/09/06 10:41:12;;;;;;;7.70;6.60;;;25.60;30.00;;;;;;5046242;28;20996;-72
2021/09/06 10:43:47;;;;;;;7.53;6.07;;;25.70;30.80;;;;;;5054036;28;20469;-72
2021/09/06 10:46:16;;;;;;;8.90;6.70;;;25.80;32.00;;;;;;5039013;28;20510;-72
2021/09/06 10:48:44;;;;;;;11.07;5.80;;;26.00;31.00;;;;;;5047879;28;20437;-72
2021/09/06 10:51:11;;;;;;;7.40;6.50;;;26.30;30.10;;;;;;5052568;28;20438;-74
2021/09/06 10:53:39;;;;;;;7.40;6.00;;;26.40;28.30;;;;;;5053676;28;20567;-74
2021/09/06 10:56:08;;;;;;;5.60;5.10;;;26.60;29.30;;;;;;5053701;28;20558;-74
2021/09/06 10:58:34;;;;;;;8.43;5.97;;;26.70;27.80;;;;;;5053263;28;20480;-73
2021/09/06 11:01:04;;;;;;;7.47;6.00;;;26.60;29.30;;;;;;5054612;28;20491;-75
2021/09/06 11:03:38;;;;;;;7.67;5.80;;;26.60;29.30;;;;;;5054178;28;20451;-72
2021/09/06 11:06:05;;;;;;;7.83;6.47;;;26.60;29.30;;;;;;5057244;28;20444;-73
2021/09/06 11:08:35;;;;;;;6.40;5.80;;;26.60;28.50;;;;;;5055960;28;20435;-75
2021/09/06 11:11:04;;;;;;;6.63;5.87;;;26.20;28.90;;;;;;5056603;28;20448;-74
2021/09/06 11:13:35;;;;;;;6.17;5.67;;;26.20;28.20;;;;;;5050297;28;20975;-73
2021/09/06 11:16:03;;;;;;;7.80;5.90;;;26.40;28.20;;;;;;5067116;28;20499;-73
2021/09/06 11:18:34;;;;;;;6.50;5.90;;;26.30;27.80;;;;;;5043923;28;20550;-73
2021/09/06 11:21:04;;;;;;;6.87;6.20;;;26.30;27.70;;;;;;5052322;28;21007;-73
2021/09/06 11:23:33;;;;;;;6.70;6.00;;;26.20;28.60;;;;;;5043537;28;20985;-72
2021/09/06 11:26:00;;;;;;;10.17;6.40;;;26.40;28.90;;;;;;5036103;28;20934;-73
2021/09/06 11:28:27;;;;;;;8.33;6.07;;;26.60;28.10;;;;;;5050900;28;20502;-74
2021/09/06 11:30:55;;;;;;;6.70;6.00;;;26.70;27.80;;;;;;5052568;28;20870;-73
2021/09/06 11:33:22;;;;;;;6.80;6.03;;;26.70;28.40;;;;;;5052946;28;20550;-73
2021/09/06 11:35:49;;;;;;;8.33;6.23;;;26.90;27.20;;;;;;5054474;28;20512;-73
2021/09/06 11:38:18;;;;;;;11.60;6.57;;;26.90;27.70;;;;;;5058361;28;20979;-73
2021/09/06 11:40:52;;;;;;;7.47;6.50;;;26.80;28.60;;;;;;5054016;28;20431;-73
2021/09/06 11:43:20;;;;;;;9.70;7.07;;;26.50;28.20;;;;;;5052391;28;20476;-74
2021/09/06 11:45:48;;;;;;;6.70;6.00;;;26.30;28.40;;;;;;5052741;28;20608;-74
2021/09/06 11:48:15;;;;;;;11.10;7.20;;;26.60;28.80;;;;;;5052963;28;20492;-74
2021/09/06 11:50:43;;;;;;;11.00;6.70;;;26.80;28.50;;;;;;5053686;28;20615;-74
2021/09/06 11:53:11;;;;;;;8.47;6.33;;;26.50;28.40;;;;;;5053571;28;20982;-75
2021/09/06 11:55:50;;;;;;;6.73;6.13;;;26.60;27.80;;;;;;5054207;28;20485;-74
2021/09/06 11:58:17;;;;;;;10.60;5.90;;;26.60;26.90;;;;;;5052925;28;20435;-71
2021/09/06 12:00:44;;;;;;;7.77;6.67;;;26.60;28.10;;;;;;5050967;28;20953;-72
2021/09/06 12:03:11;;;;;;;7.07;6.37;;;26.90;28.50;;;;;;5058438;28;20900;-73
2021/09/06 12:05:40;;;;;;;7.17;6.30;;;27.10;28.00;;;;;;5055339;28;20912;-72
2021/09/06 12:08:11;;;;;;;7.03;6.43;;;27.30;26.60;;;;;;5075215;28;20462;-72
2021/09/06 12:10:41;;;;;;;7.20;6.50;;;27.40;25.60;;;;;;5076104;28;20969;-72
2021/09/06 12:13:10;;;;;;;7.77;6.47;;;27.60;25.70;;;;;;5042173;28;20521;-74
2021/09/06 12:15:51;;;;;;;7.00;6.00;;;27.50;25.80;;;;;;5051707;28;20519;-73
2021/09/06 12:18:18;;;;;;;7.17;6.50;;;27.30;25.50;;;;;;5051772;28;20453;-74
2021/09/06 12:20:46;;;;;;;6.27;5.67;;;27.00;25.40;;;;;;5039780;28;20541;-72
2021/09/06 12:23:15;;;;;;;9.53;6.33;;;26.90;26.40;;;;;;5060437;28;20447;-73
2021/09/06 12:25:43;;;;;;;13.47;5.60;;;27.00;25.90;;;;;;5057231;28;20552;-72
2021/09/06 12:28:12;;;;;;;5.97;5.33;;;27.30;25.60;;;;;;5073530;28;20428;-73
2021/09/06 12:30:40;;;;;;;5.97;5.37;;;27.50;25.60;;;;;;5080888;28;20431;-72
2021/09/06 12:33:07;;;;;;;6.10;5.60;;;27.70;24.80;;;;;;5073597;28;20550;-72
2021/09/06 12:35:34;;;;;;;5.93;5.43;;;27.80;23.10;;;;;;5067483;28;20491;-73
2021/09/06 12:38:01;;;;;;;6.13;5.53;;;27.90;23.40;;;;;;5042767;28;20447;-73
2021/09/06 12:40:28;;;;;;;6.60;5.77;;;28.20;21.80;;;;;;5053470;28;20460;-73
2021/09/06 12:42:56;;;;;;;6.60;5.80;;;28.30;22.40;;;;;;5044988;28;20454;-73
2021/09/06 12:45:24;;;;;;;8.40;6.97;;;28.10;23.60;;;;;;5046001;28;20539;-72
2021/09/06 12:47:51;;;;;;;7.20;6.30;;;27.60;25.70;;;;;;5047430;28;20887;-72